createdAt,value
2023-03-29T00:00:07.566Z,2.9
2023-03-29T00:15:41.622Z,2.8
2023-03-29T00:31:15.596Z,2
2023-03-29T00:46:50.009Z,1.8
2023-03-29T01:02:24.422Z,1.5
2023-03-29T01:17:58.634Z,2.1
2023-03-29T01:33:32.860Z,2.7
2023-03-29T01:49:06.801Z,2.9
2023-03-29T02:04:40.750Z,2.1
2023-03-29T02:20:14.853Z,2.3
2023-03-29T02:35:48.845Z,2.4
2023-03-29T02:51:23.047Z,2.6
2023-03-29T03:06:56.990Z,2
2023-03-29T03:22:30.931Z,2.2
2023-03-29T03:38:04.878Z,1.8
2023-03-29T03:53:38.820Z,2.7
2023-03-29T04:09:12.867Z,3.8
2023-03-29T04:24:46.811Z,3.3
2023-03-29T04:40:20.824Z,3.5
2023-03-29T04:55:54.788Z,4.1
2023-03-29T05:11:28.936Z,3.8
2023-03-29T05:27:02.876Z,3.2
2023-03-29T05:42:36.827Z,3.8
2023-03-29T05:58:10.758Z,4.4
2023-03-29T06:13:44.705Z,4.6
2023-03-29T06:29:18.686Z,4.2
2023-03-29T06:44:52.752Z,3.8
2023-03-29T07:00:26.885Z,4.3
2023-03-29T07:16:01.151Z,4.3
2023-03-29T07:31:35.452Z,3.7
2023-03-29T07:47:09.652Z,5
2023-03-29T08:02:43.794Z,2.9
2023-03-29T08:18:18.269Z,3.2
2023-03-29T08:33:52.354Z,2.8
2023-03-29T08:49:26.363Z,2.7
2023-03-29T09:05:00.649Z,2.5
2023-03-29T09:20:34.694Z,2.2
2023-03-29T09:36:08.824Z,2.7
2023-03-29T09:51:43.089Z,3.6
2023-03-29T10:07:17.284Z,2.5
2023-03-29T10:22:51.448Z,2.1
2023-03-29T10:38:25.503Z,1.7
2023-03-29T10:53:59.625Z,1.4
2023-03-29T11:09:33.751Z,2.3
2023-03-29T11:25:07.850Z,2
2023-03-29T11:40:41.931Z,1.8
2023-03-29T11:56:16.076Z,1.5
2023-03-29T12:11:50.191Z,1.3
2023-03-29T12:27:24.373Z,1.4
2023-03-29T12:42:58.486Z,1.2
2023-03-29T12:58:32.660Z,1.5
2023-03-29T13:14:06.815Z,0.8
2023-03-29T13:29:41.026Z,1.2
2023-03-29T13:45:15.167Z,1.3
2023-03-29T14:00:49.335Z,1.2
2023-03-29T14:16:23.697Z,1
2023-03-29T14:31:58.039Z,1
2023-03-29T14:47:32.328Z,2.6
2023-03-29T15:03:06.962Z,1.9
2023-03-29T15:18:41.619Z,1.2
2023-03-29T15:34:15.955Z,1.2
2023-03-29T15:49:50.291Z,1.2
2023-03-29T16:05:24.425Z,1.4
2023-03-29T16:20:58.532Z,1
2023-03-29T16:36:32.902Z,1.7
2023-03-29T16:52:07.016Z,2
2023-03-29T17:07:41.308Z,1.4
2023-03-29T17:23:15.468Z,2.1
2023-03-29T17:38:49.559Z,1.6
2023-03-29T17:54:23.616Z,1.5
2023-03-29T18:09:57.717Z,2.5
2023-03-29T18:25:31.876Z,1.3
2023-03-29T18:41:05.958Z,1.3
2023-03-29T18:56:40.135Z,1.9
2023-03-29T19:12:14.346Z,1.7
2023-03-29T19:27:48.862Z,1.5
2023-03-29T19:43:22.911Z,1.9
2023-03-29T19:58:56.944Z,2.5
2023-03-29T20:14:31.008Z,1.8
2023-03-29T20:30:05.095Z,2
2023-03-29T20:45:50.036Z,1.8
2023-03-29T21:01:28.559Z,1.8
2023-03-29T21:17:02.714Z,2.1
2023-03-29T21:32:36.808Z,1.8
2023-03-29T21:48:11.128Z,2
2023-03-29T22:03:45.257Z,2
2023-03-29T22:19:19.368Z,2.3
2023-03-29T22:34:53.462Z,2.4
2023-03-29T22:50:27.821Z,2.3
2023-03-29T23:06:01.881Z,2.4
2023-03-29T23:21:36.161Z,2.3
2023-03-29T23:37:10.255Z,2.1
2023-03-29T23:52:44.298Z,2
